Time;durP1;ratioP1;P1;durP2;ratioP2;P2;SDS_P1;SDS_P2;PMS_P1;PMS_P2;Temp;Humidity;BMP_temperature;BMP_pressure;BME280_temperature;BME280_humidity;BME280_pressure;Samples;Min_cycle;Max_cycle;Signal;HPM_P1;HPM_P2
2022/08/13 00:00:21;;;;;;;7.90;6.30;;;;;;;;;;108879;1296;23069;-24
2022/08/13 00:02:47;;;;;;;7.30;6.50;;;;;;;;;;108847;1303;22396;-28
2022/08/13 00:05:12;;;;;;;7.80;6.30;;;;;;;;;;108742;1295;25187;-28
2022/08/13 00:07:38;;;;;;;8.50;6.70;;;;;;;;;;108621;1296;23284;-28
2022/08/13 00:10:04;;;;;;;8.50;5.90;;;;;;;;;;108846;1296;23339;-28
2022/08/13 00:15:02;;;;;;;7.10;6.30;;;;;;;;;;108888;1296;22468;-28
2022/08/13 00:17:29;;;;;;;9.70;5.70;;;;;;;;;;108912;1295;23192;-24
2022/08/13 00:19:54;;;;;;;7.20;5.80;;;;;;;;;;108898;1295;22559;-25
2022/08/13 00:22:23;;;;;;;9.00;6.40;;;;;;;;;;108913;1296;23117;-28
2022/08/13 00:24:49;;;;;;;7.10;6.40;;;;;;;;;;108873;1296;22553;-28
2022/08/13 00:27:14;;;;;;;6.30;5.60;;;;;;;;;;108935;1295;23361;-24
2022/08/13 00:29:40;;;;;;;6.40;5.80;;;;;;;;;;108893;1296;22339;-26
2022/08/13 00:32:06;;;;;;;6.10;5.10;;;;;;;;;;108917;1295;23427;-24
2022/08/13 00:34:31;;;;;;;6.80;6.20;;;;;;;;;;108863;1295;23275;-28
2022/08/13 00:36:57;;;;;;;6.50;5.70;;;;;;;;;;108725;1296;23168;-28
2022/08/13 00:39:22;;;;;;;7.40;5.10;;;;;;;;;;108893;1296;22416;-24
2022/08/13 00:41:48;;;;;;;5.50;4.60;;;;;;;;;;108903;1296;23206;-25
2022/08/13 00:44:15;;;;;;;7.40;5.30;;;;;;;;;;108891;1296;23740;-25
2022/08/13 00:46:41;;;;;;;5.60;4.50;;;;;;;;;;108852;1296;22539;-28
2022/08/13 00:49:06;;;;;;;7.20;5.70;;;;;;;;;;108889;1296;22554;-24
2022/08/13 00:51:32;;;;;;;5.70;5.20;;;;;;;;;;108880;1296;23321;-28
2022/08/13 00:54:00;;;;;;;7.80;6.80;;;;;;;;;;108870;1295;22302;-24
2022/08/13 00:56:26;;;;;;;6.80;5.30;;;;;;;;;;108862;1296;25315;-24
2022/08/13 00:58:51;;;;;;;8.20;5.00;;;;;;;;;;108764;1296;22440;-24
2022/08/13 01:01:22;;;;;;;5.80;5.30;;;;;;;;;;108902;1296;22517;-24
2022/08/13 01:03:47;;;;;;;6.10;5.20;;;;;;;;;;108872;1303;22531;-25
2022/08/13 01:06:13;;;;;;;6.50;5.50;;;;;;;;;;108783;1296;23259;-28
2022/08/13 01:08:40;;;;;;;10.00;6.40;;;;;;;;;;108919;1296;23107;-25
2022/08/13 01:11:08;;;;;;;7.80;6.50;;;;;;;;;;108887;1296;23447;-28
2022/08/13 01:13:34;;;;;;;8.60;4.30;;;;;;;;;;108875;1296;22543;-24
2022/08/13 01:16:01;;;;;;;4.60;4.20;;;;;;;;;;108740;1296;22538;-24
2022/08/13 01:18:26;;;;;;;6.30;4.30;;;;;;;;;;108884;1288;23084;-28
2022/08/13 01:21:00;;;;;;;6.40;5.60;;;;;;;;;;108759;1297;23172;-24
2022/08/13 01:23:28;;;;;;;5.40;4.80;;;;;;;;;;108919;1295;22449;-25
2022/08/13 01:25:54;;;;;;;5.50;4.30;;;;;;;;;;108909;1296;23213;-28
2022/08/13 01:28:22;;;;;;;6.00;5.50;;;;;;;;;;108873;1303;22464;-25
2022/08/13 01:30:50;;;;;;;9.40;6.50;;;;;;;;;;108909;1296;22444;-24
2022/08/13 01:33:17;;;;;;;6.70;4.10;;;;;;;;;;108437;1296;22521;-28
2022/08/13 01:35:42;;;;;;;4.00;3.60;;;;;;;;;;108846;1296;23957;-26
2022/08/13 01:38:09;;;;;;;5.80;5.20;;;;;;;;;;108899;1296;22406;-25
2022/08/13 01:40:34;;;;;;;4.80;4.40;;;;;;;;;;108894;1296;22741;-29
2022/08/13 01:43:00;;;;;;;5.70;5.20;;;;;;;;;;108879;1296;22540;-29
2022/08/13 01:45:25;;;;;;;11.50;5.80;;;;;;;;;;108897;1296;22400;-29
2022/08/13 01:52:50;;;;;;;9.30;5.80;;;;;;;;;;108790;1296;22530;-25
2022/08/13 01:55:17;;;;;;;6.30;5.70;;;;;;;;;;108887;1296;23121;-29
2022/08/13 01:57:43;;;;;;;7.60;6.20;;;;;;;;;;108864;1295;23162;-29
2022/08/13 02:00:09;;;;;;;7.10;6.20;;;;;;;;;;108902;1288;23087;-29
2022/08/13 02:02:36;;;;;;;7.30;6.40;;;;;;;;;;108771;1296;22537;-25
2022/08/13 02:05:02;;;;;;;6.10;5.00;;;;;;;;;;108791;1296;23120;-25
2022/08/13 02:07:27;;;;;;;6.80;5.90;;;;;;;;;;108912;1296;22515;-25
2022/08/13 02:09:53;;;;;;;5.80;5.10;;;;;;;;;;108878;1296;22388;-29
2022/08/13 02:12:18;;;;;;;6.10;5.10;;;;;;;;;;108875;1296;23168;-29
2022/08/13 02:14:44;;;;;;;6.10;5.50;;;;;;;;;;108895;1296;22382;-28
2022/08/13 02:17:25;;;;;;;5.10;4.50;;;;;;;;;;108879;1296;22541;-25
2022/08/13 02:19:52;;;;;;;5.60;4.80;;;;;;;;;;108873;1295;22886;-29
2022/08/13 02:22:18;;;;;;;6.10;5.60;;;;;;;;;;108892;1295;22551;-25
2022/08/13 02:24:47;;;;;;;7.10;4.50;;;;;;;;;;108850;1303;23119;-27
2022/08/13 02:27:12;;;;;;;5.70;5.10;;;;;;;;;;108805;1295;22571;-25
2022/08/13 02:29:39;;;;;;;6.10;5.60;;;;;;;;;;108887;1303;23106;-29
2022/08/13 02:32:05;;;;;;;6.20;5.50;;;;;;;;;;108908;1296;23129;-25
2022/08/13 02:34:32;;;;;;;6.10;5.40;;;;;;;;;;108875;1296;23783;-25
2022/08/13 02:36:58;;;;;;;5.90;5.40;;;;;;;;;;108890;1295;22536;-25
2022/08/13 02:39:24;;;;;;;5.30;4.90;;;;;;;;;;108830;1296;22619;-25
2022/08/13 02:41:50;;;;;;;6.20;5.50;;;;;;;;;;108889;1295;23280;-25
2022/08/13 02:44:16;;;;;;;10.90;6.40;;;;;;;;;;108861;1303;22523;-25
2022/08/13 02:46:42;;;;;;;5.00;4.00;;;;;;;;;;108861;1296;22251;-29
2022/08/13 02:49:08;;;;;;;6.20;5.40;;;;;;;;;;108901;1296;22458;-29
2022/08/13 02:51:33;;;;;;;10.20;4.80;;;;;;;;;;108902;1296;22492;-29
2022/08/13 02:54:00;;;;;;;6.10;5.60;;;;;;;;;;108857;1296;23153;-25
2022/08/13 02:56:26;;;;;;;11.30;4.50;;;;;;;;;;108889;1296;22395;-29
2022/08/13 02:58:52;;;;;;;4.50;4.00;;;;;;;;;;108883;1296;22520;-25
2022/08/13 03:01:18;;;;;;;6.70;6.00;;;;;;;;;;108668;1303;22415;-28
2022/08/13 03:03:43;;;;;;;5.00;4.60;;;;;;;;;;108891;1295;23092;-24
2022/08/13 03:06:09;;;;;;;7.90;6.40;;;;;;;;;;108907;1295;23179;-24
2022/08/13 03:08:34;;;;;;;5.10;4.30;;;;;;;;;;108885;1295;25216;-28
2022/08/13 03:11:00;;;;;;;8.00;6.00;;;;;;;;;;108860;1295;22262;-28
2022/08/13 03:13:26;;;;;;;5.70;5.10;;;;;;;;;;108895;1296;22679;-24
2022/08/13 03:15:53;;;;;;;6.90;6.20;;;;;;;;;;108919;1296;22543;-28
2022/08/13 03:18:18;;;;;;;6.90;6.30;;;;;;;;;;108865;1296;22711;-24
2022/08/13 03:20:43;;;;;;;7.90;5.30;;;;;;;;;;108895;1296;23260;-28
2022/08/13 03:23:09;;;;;;;6.70;5.60;;;;;;;;;;108883;1295;22584;-24
2022/08/13 03:25:34;;;;;;;5.70;4.90;;;;;;;;;;108909;1296;22387;-28
2022/08/13 03:28:00;;;;;;;7.70;7.10;;;;;;;;;;108321;1296;25202;-25
2022/08/13 03:30:26;;;;;;;6.30;5.30;;;;;;;;;;108582;1299;23225;-27
2022/08/13 03:32:52;;;;;;;15.70;6.30;;;;;;;;;;108883;1296;22546;-24
2022/08/13 03:35:20;;;;;;;13.40;6.30;;;;;;;;;;108889;1303;22387;-28
2022/08/13 03:37:47;;;;;;;8.00;7.30;;;;;;;;;;108805;1296;22113;-24
2022/08/13 03:40:13;;;;;;;10.80;9.70;;;;;;;;;;108913;1296;23018;-28
2022/08/13 03:42:40;;;;;;;7.60;7.00;;;;;;;;;;108896;1295;22370;-24
2022/08/13 03:45:06;;;;;;;6.60;6.00;;;;;;;;;;108885;1296;22515;-25
2022/08/13 03:47:32;;;;;;;8.60;7.50;;;;;;;;;;108886;1296;22389;-28
2022/08/13 03:49:58;;;;;;;6.60;5.90;;;;;;;;;;108873;1296;23391;-24
2022/08/13 03:52:24;;;;;;;8.20;7.10;;;;;;;;;;108911;1296;23232;-28
2022/08/13 03:54:49;;;;;;;8.30;6.70;;;;;;;;;;108885;1296;23139;-24
2022/08/13 03:57:17;;;;;;;7.80;6.80;;;;;;;;;;108471;1303;23616;-28
2022/08/13 03:59:43;;;;;;;8.20;5.90;;;;;;;;;;108856;1296;22404;-28
2022/08/13 04:02:09;;;;;;;6.40;5.80;;;;;;;;;;108853;1296;23118;-28
2022/08/13 04:04:34;;;;;;;10.00;7.30;;;;;;;;;;108861;1296;22379;-24
2022/08/13 04:07:00;;;;;;;5.20;4.70;;;;;;;;;;108876;1303;22538;-28
2022/08/13 04:09:26;;;;;;;6.90;6.30;;;;;;;;;;108894;1296;22404;-28
2022/08/13 04:11:52;;;;;;;6.20;5.40;;;;;;;;;;108644;1295;23176;-24
2022/08/13 04:14:17;;;;;;;4.60;4.20;;;;;;;;;;108916;1296;23188;-28
2022/08/13 04:16:42;;;;;;;3.90;3.60;;;;;;;;;;108889;1295;22560;-25
2022/08/13 04:19:08;;;;;;;10.10;5.10;;;;;;;;;;108881;1301;22541;-24
2022/08/13 04:21:37;;;;;;;6.50;6.00;;;;;;;;;;108897;1296;23036;-28
2022/08/13 04:24:03;;;;;;;10.60;5.20;;;;;;;;;;108873;1296;23157;-28
2022/08/13 04:26:29;;;;;;;7.10;6.40;;;;;;;;;;108869;1296;23248;-24
2022/08/13 04:28:55;;;;;;;6.80;6.20;;;;;;;;;;108883;1303;23123;-24
2022/08/13 04:31:21;;;;;;;7.60;6.90;;;;;;;;;;108871;1303;23249;-30
2022/08/13 04:33:47;;;;;;;7.20;5.40;;;;;;;;;;108910;1296;22538;-28
2022/08/13 04:36:12;;;;;;;7.50;6.40;;;;;;;;;;108901;1296;22790;-28
2022/08/13 04:38:38;;;;;;;6.50;5.80;;;;;;;;;;108832;1296;23143;-28
2022/08/13 04:41:03;;;;;;;6.70;5.90;;;;;;;;;;108884;1296;23092;-24
2022/08/13 04:43:29;;;;;;;7.20;6.50;;;;;;;;;;108880;1303;22547;-25
2022/08/13 04:45:58;;;;;;;6.10;5.60;;;;;;;;;;108871;1295;22478;-28
2022/08/13 04:48:24;;;;;;;6.80;6.10;;;;;;;;;;108926;1296;22483;-28
2022/08/13 04:50:50;;;;;;;6.60;5.80;;;;;;;;;;108860;1303;22446;-28
2022/08/13 04:53:19;;;;;;;7.90;7.20;;;;;;;;;;108488;1303;22530;-28
2022/08/13 04:55:44;;;;;;;9.00;7.40;;;;;;;;;;108881;1296;23239;-25
2022/08/13 04:58:09;;;;;;;8.80;7.70;;;;;;;;;;108893;1296;22524;-25
2022/08/13 05:00:35;;;;;;;7.10;5.80;;;;;;;;;;108744;1297;22410;-25
2022/08/13 05:03:04;;;;;;;9.50;6.00;;;;;;;;;;108842;1303;23329;-28
2022/08/13 05:05:31;;;;;;;15.80;8.00;;;;;;;;;;108808;1296;23229;-25
2022/08/13 05:07:57;;;;;;;9.60;8.60;;;;;;;;;;108855;1303;22681;-25
2022/08/13 05:10:22;;;;;;;7.30;6.60;;;;;;;;;;108859;1296;23094;-25
2022/08/13 05:12:48;;;;;;;8.50;7.50;;;;;;;;;;108745;1303;22514;-28
2022/08/13 05:15:14;;;;;;;8.30;7.20;;;;;;;;;;108933;1296;23191;-29
2022/08/13 05:17:40;;;;;;;8.30;7.40;;;;;;;;;;108893;1296;23197;-28
2022/08/13 05:20:13;;;;;;;29.80;16.70;;;;;;;;;;108868;1296;22559;-25
2022/08/13 05:22:39;;;;;;;10.80;9.70;;;;;;;;;;108908;1296;22372;-25
2022/08/13 05:25:05;;;;;;;10.30;9.30;;;;;;;;;;108827;1303;22591;-29
2022/08/13 05:27:31;;;;;;;15.80;11.30;;;;;;;;;;108921;1296;23149;-28
2022/08/13 05:29:57;;;;;;;9.60;8.50;;;;;;;;;;108896;1296;22463;-25
2022/08/13 05:32:22;;;;;;;14.20;8.70;;;;;;;;;;108820;1296;22526;-25
2022/08/13 05:34:48;;;;;;;11.60;10.40;;;;;;;;;;108835;1296;23350;-25
2022/08/13 05:37:16;;;;;;;8.70;7.80;;;;;;;;;;108863;1296;22835;-24
2022/08/13 05:39:42;;;;;;;12.60;8.50;;;;;;;;;;108674;1296;22535;-27
2022/08/13 05:42:08;;;;;;;14.20;9.20;;;;;;;;;;108431;1297;22530;-24
2022/08/13 05:44:34;;;;;;;10.50;9.30;;;;;;;;;;108868;1303;23016;-24
2022/08/13 05:46:59;;;;;;;11.60;8.20;;;;;;;;;;108874;1296;22873;-28
2022/08/13 05:49:25;;;;;;;9.30;8.30;;;;;;;;;;108730;1295;22904;-24
2022/08/13 05:51:51;;;;;;;8.70;7.40;;;;;;;;;;108497;1303;476424;-28
2022/08/13 05:54:18;;;;;;;8.80;7.70;;;;;;;;;;108750;1296;22534;-28
2022/08/13 05:56:44;;;;;;;12.50;9.40;;;;;;;;;;108889;1296;23043;-25
2022/08/13 06:03:22;;;;;;;10.80;9.70;;;;;;;;;;108825;1296;22646;-28
2022/08/13 06:04:26;;;;;;;9.70;8.30;;;;;;;;;;108835;1296;22540;-28
2022/08/13 06:06:51;;;;;;;11.70;10.10;;;;;;;;;;108855;1296;22541;-28
2022/08/13 06:09:17;;;;;;;11.30;8.60;;;;;;;;;;108843;1303;22520;-24
2022/08/13 06:11:43;;;;;;;11.30;9.90;;;;;;;;;;108578;1296;23402;-28
2022/08/13 06:14:08;;;;;;;10.60;8.60;;;;;;;;;;108884;1303;22473;-28
2022/08/13 06:16:34;;;;;;;14.00;11.00;;;;;;;;;;108889;1296;23159;-28
2022/08/13 06:19:00;;;;;;;12.50;10.80;;;;;;;;;;108856;1303;22531;-27
2022/08/13 06:21:25;;;;;;;11.70;9.00;;;;;;;;;;108855;1295;22530;-24
2022/08/13 06:23:51;;;;;;;14.30;10.50;;;;;;;;;;108816;1296;23336;-24
2022/08/13 06:26:19;;;;;;;13.00;9.00;;;;;;;;;;108697;1303;22547;-28
2022/08/13 06:28:45;;;;;;;11.50;10.00;;;;;;;;;;108868;1296;23853;-28
2022/08/13 06:31:14;;;;;;;13.60;11.60;;;;;;;;;;108910;1295;22607;-24
2022/08/13 06:33:39;;;;;;;13.60;8.40;;;;;;;;;;108885;1296;22452;-24
2022/08/13 06:36:06;;;;;;;21.10;12.60;;;;;;;;;;108860;1296;23325;-24
2022/08/13 06:38:33;;;;;;;13.60;11.30;;;;;;;;;;108909;1296;22400;-28
2022/08/13 06:41:00;;;;;;;14.50;12.60;;;;;;;;;;108877;1296;23201;-28
2022/08/13 06:43:27;;;;;;;17.00;13.20;;;;;;;;;;108459;1303;22549;-28
2022/08/13 06:45:55;;;;;;;18.90;12.50;;;;;;;;;;108879;1296;23356;-26
2022/08/13 06:48:22;;;;;;;10.60;8.80;;;;;;;;;;108899;1295;22298;-26
2022/08/13 06:50:50;;;;;;;15.70;12.50;;;;;;;;;;108891;1296;22395;-30
2022/08/13 06:53:16;;;;;;;17.20;14.60;;;;;;;;;;108883;1296;22505;-30
2022/08/13 06:55:41;;;;;;;18.80;14.70;;;;;;;;;;108826;1296;23028;-26
2022/08/13 06:58:08;;;;;;;18.60;13.70;;;;;;;;;;108872;1296;23090;-30
2022/08/13 07:00:33;;;;;;;24.10;15.20;;;;;;;;;;108906;1296;23043;-25
2022/08/13 07:02:59;;;;;;;18.70;13.80;;;;;;;;;;108893;1296;22458;-27
2022/08/13 07:05:42;;;;;;;17.00;14.10;;;;;;;;;;108902;1296;22390;-29
2022/08/13 07:08:08;;;;;;;15.80;12.40;;;;;;;;;;108866;1296;23134;-24
2022/08/13 07:10:34;;;;;;;17.90;13.60;;;;;;;;;;108869;1296;23129;-24
2022/08/13 07:13:00;;;;;;;11.50;10.40;;;;;;;;;;108856;1303;22524;-24
2022/08/13 07:15:26;;;;;;;17.60;13.00;;;;;;;;;;108826;1296;23116;-28
2022/08/13 07:17:52;;;;;;;18.80;12.20;;;;;;;;;;108824;1295;23296;-28
2022/08/13 07:20:17;;;;;;;14.30;12.00;;;;;;;;;;108898;1296;22520;-25
2022/08/13 07:22:42;;;;;;;18.40;12.20;;;;;;;;;;108875;1289;23208;-31
2022/08/13 07:25:09;;;;;;;15.00;13.10;;;;;;;;;;108884;1296;23197;-31
2022/08/13 07:27:36;;;;;;;13.60;11.40;;;;;;;;;;108831;1298;23466;-25
2022/08/13 07:30:02;;;;;;;14.40;11.90;;;;;;;;;;108863;1296;22365;-24
2022/08/13 07:32:28;;;;;;;16.30;9.30;;;;;;;;;;108879;1296;22526;-29
2022/08/13 07:34:56;;;;;;;9.90;8.50;;;;;;;;;;108930;1296;22994;-29
2022/08/13 07:37:22;;;;;;;7.90;7.10;;;;;;;;;;108867;1296;22531;-29
2022/08/13 07:39:48;;;;;;;12.80;10.30;;;;;;;;;;108839;1296;22453;-24
2022/08/13 07:42:15;;;;;;;9.50;8.50;;;;;;;;;;108789;1296;22463;-24
2022/08/13 07:44:41;;;;;;;8.70;7.20;;;;;;;;;;108704;1298;22536;-24
2022/08/13 07:47:09;;;;;;;9.20;8.30;;;;;;;;;;108871;1296;22541;-26
2022/08/13 07:49:35;;;;;;;7.90;7.00;;;;;;;;;;108796;1296;23348;-28
2022/08/13 07:52:00;;;;;;;10.70;8.80;;;;;;;;;;108861;1295;23321;-29
2022/08/13 07:54:26;;;;;;;9.80;7.20;;;;;;;;;;108880;1296;23067;-25
2022/08/13 07:56:54;;;;;;;6.50;5.90;;;;;;;;;;108823;1303;24208;-25
2022/08/13 07:59:20;;;;;;;7.60;6.90;;;;;;;;;;108917;1296;23282;-24
2022/08/13 08:01:47;;;;;;;8.50;6.50;;;;;;;;;;108850;1296;22579;-29
2022/08/13 08:04:14;;;;;;;8.10;6.90;;;;;;;;;;108835;1296;22471;-25
2022/08/13 08:06:40;;;;;;;9.30;7.80;;;;;;;;;;108867;1295;22531;-28
2022/08/13 08:09:08;;;;;;;7.50;6.50;;;;;;;;;;108899;1296;23085;-29
2022/08/13 08:14:03;;;;;;;8.20;7.40;;;;;;;;;;108697;1303;22450;-24
2022/08/13 08:16:30;;;;;;;12.10;10.30;;;;;;;;;;108736;1296;23041;-24
2022/08/13 08:18:58;;;;;;;9.40;8.30;;;;;;;;;;108855;1296;22453;-25
2022/08/13 08:21:24;;;;;;;9.90;8.40;;;;;;;;;;108875;1303;23034;-29
2022/08/13 08:23:52;;;;;;;15.30;12.00;;;;;;;;;;108903;1296;23092;-28
2022/08/13 08:26:17;;;;;;;11.60;10.50;;;;;;;;;;108863;1303;23253;-29
2022/08/13 08:28:43;;;;;;;12.60;10.70;;;;;;;;;;108888;1296;22425;-29
2022/08/13 08:31:09;;;;;;;14.80;10.90;;;;;;;;;;108907;1296;23095;-29
2022/08/13 08:33:35;;;;;;;20.00;13.10;;;;;;;;;;108626;1298;23261;-25
2022/08/13 08:36:02;;;;;;;15.60;11.30;;;;;;;;;;108916;1296;22530;-24
2022/08/13 08:43:26;;;;;;;17.40;11.30;;;;;;;;;;108576;1296;23092;-25
2022/08/13 08:45:52;;;;;;;15.30;11.40;;;;;;;;;;108885;1303;22483;-29
2022/08/13 08:48:18;;;;;;;14.20;10.80;;;;;;;;;;108788;1296;23166;-28
2022/08/13 08:50:43;;;;;;;10.80;9.60;;;;;;;;;;108753;1296;23197;-28
2022/08/13 08:55:38;;;;;;;11.30;10.20;;;;;;;;;;108875;1296;22455;-28
2022/08/13 08:58:04;;;;;;;12.40;11.10;;;;;;;;;;108821;1295;22589;-26
2022/08/13 09:00:30;;;;;;;16.20;12.10;;;;;;;;;;108861;1296;22521;-29
2022/08/13 09:02:56;;;;;;;15.50;12.90;;;;;;;;;;108868;1296;22811;-28
2022/08/13 09:05:22;;;;;;;12.00;10.90;;;;;;;;;;108621;1304;23295;-24
2022/08/13 09:07:49;;;;;;;14.40;12.10;;;;;;;;;;108831;1296;23139;-24
2022/08/13 09:10:15;;;;;;;14.10;11.40;;;;;;;;;;108736;1299;23193;-24
2022/08/13 09:12:44;;;;;;;13.20;11.20;;;;;;;;;;108607;1296;22540;-28
2022/08/13 09:15:11;;;;;;;12.10;10.30;;;;;;;;;;108879;1296;22476;-28
2022/08/13 09:17:36;;;;;;;11.90;10.70;;;;;;;;;;108761;1296;22567;-29
2022/08/13 09:20:03;;;;;;;12.20;9.50;;;;;;;;;;108748;1299;22526;-30
2022/08/13 09:22:28;;;;;;;12.40;11.20;;;;;;;;;;108768;1296;22534;-29
2022/08/13 09:24:56;;;;;;;18.20;13.20;;;;;;;;;;108906;1296;23312;-30
2022/08/13 09:27:22;;;;;;;11.30;9.60;;;;;;;;;;108889;1296;22534;-30
2022/08/13 09:29:50;;;;;;;15.40;11.90;;;;;;;;;;108862;1296;22521;-29
2022/08/13 09:32:16;;;;;;;13.20;11.90;;;;;;;;;;108835;1296;22365;-25
2022/08/13 09:34:44;;;;;;;18.30;16.30;;;;;;;;;;108761;1296;22535;-26
2022/08/13 09:37:10;;;;;;;15.30;13.30;;;;;;;;;;108869;1296;22353;-29
2022/08/13 09:39:37;;;;;;;18.60;16.00;;;;;;;;;;108742;1297;23167;-26
2022/08/13 09:42:05;;;;;;;17.60;15.10;;;;;;;;;;108677;1296;23007;-30
2022/08/13 09:44:30;;;;;;;17.40;15.60;;;;;;;;;;108865;1295;22434;-29
2022/08/13 09:46:57;;;;;;;16.40;14.40;;;;;;;;;;108899;1296;23165;-26
2022/08/13 09:49:23;;;;;;;20.00;16.20;;;;;;;;;;108886;1296;23264;-26
2022/08/13 09:51:49;;;;;;;18.00;16.10;;;;;;;;;;108881;1296;22541;-26
2022/08/13 09:54:16;;;;;;;16.70;13.00;;;;;;;;;;107941;1295;23208;-25
2022/08/13 09:56:42;;;;;;;19.40;14.80;;;;;;;;;;108865;1296;23184;-30
2022/08/13 09:59:08;;;;;;;13.30;11.90;;;;;;;;;;108892;1296;22540;-29
2022/08/13 10:01:34;;;;;;;15.10;13.00;;;;;;;;;;108882;1296;23101;-27
2022/08/13 10:04:00;;;;;;;18.00;14.40;;;;;;;;;;108888;1296;22528;-29
2022/08/13 10:06:28;;;;;;;17.30;15.50;;;;;;;;;;108890;1296;22541;-26
2022/08/13 10:08:54;;;;;;;16.30;13.50;;;;;;;;;;108739;1299;22784;-30
2022/08/13 10:11:21;;;;;;;16.60;14.40;;;;;;;;;;108833;1303;23141;-29
2022/08/13 10:13:47;;;;;;;14.10;12.50;;;;;;;;;;108790;1303;22514;-30
2022/08/13 10:16:12;;;;;;;14.50;13.10;;;;;;;;;;108770;1296;23392;-26
2022/08/13 10:18:37;;;;;;;24.50;13.70;;;;;;;;;;108880;1303;22409;-30
2022/08/13 10:21:03;;;;;;;13.60;12.30;;;;;;;;;;108685;1304;22816;-26
2022/08/13 10:23:29;;;;;;;17.00;12.00;;;;;;;;;;108854;1303;22449;-30
2022/08/13 10:25:54;;;;;;;12.90;11.40;;;;;;;;;;108888;1303;23425;-26
2022/08/13 10:28:23;;;;;;;19.00;16.10;;;;;;;;;;108495;1296;22992;-25
2022/08/13 10:30:48;;;;;;;17.90;14.70;;;;;;;;;;108896;1296;22463;-25
2022/08/13 10:33:15;;;;;;;19.80;12.00;;;;;;;;;;108870;1296;23244;-27
2022/08/13 10:35:41;;;;;;;11.90;10.70;;;;;;;;;;108886;1296;22397;-25
2022/08/13 10:38:08;;;;;;;10.90;9.80;;;;;;;;;;108867;1296;22509;-25
2022/08/13 10:40:34;;;;;;;13.70;11.30;;;;;;;;;;108641;1298;23119;-28
2022/08/13 10:43:00;;;;;;;10.90;9.80;;;;;;;;;;108852;1303;23238;-28
2022/08/13 10:45:26;;;;;;;11.00;9.90;;;;;;;;;;108892;1296;22824;-25
2022/08/13 10:47:52;;;;;;;10.40;8.90;;;;;;;;;;108654;1296;22540;-24
2022/08/13 10:50:19;;;;;;;9.60;8.40;;;;;;;;;;108849;1299;22628;-25
2022/08/13 10:52:45;;;;;;;12.30;9.10;;;;;;;;;;108873;1296;22528;-28
2022/08/13 10:55:11;;;;;;;10.30;8.00;;;;;;;;;;108894;1296;22398;-28
2022/08/13 10:57:38;;;;;;;9.70;8.80;;;;;;;;;;108531;1296;22524;-28
2022/08/13 11:00:04;;;;;;;12.10;7.10;;;;;;;;;;108694;1303;23095;-28
2022/08/13 11:02:29;;;;;;;8.00;6.90;;;;;;;;;;108858;1296;22329;-28
2022/08/13 11:04:55;;;;;;;8.40;7.50;;;;;;;;;;108911;1295;22498;-28
2022/08/13 11:07:21;;;;;;;9.60;8.10;;;;;;;;;;108733;1298;23167;-24
2022/08/13 11:09:46;;;;;;;9.30;7.90;;;;;;;;;;108905;1296;23088;-25
2022/08/13 11:12:12;;;;;;;8.80;8.10;;;;;;;;;;108597;1303;23284;-28
2022/08/13 11:14:38;;;;;;;10.20;8.90;;;;;;;;;;108887;1295;22556;-24
2022/08/13 11:17:04;;;;;;;8.10;7.50;;;;;;;;;;108741;1304;22527;-24
2022/08/13 11:19:30;;;;;;;14.20;8.90;;;;;;;;;;108900;1296;23213;-24
2022/08/13 11:21:56;;;;;;;9.10;7.80;;;;;;;;;;108860;1296;22560;-28
2022/08/13 11:24:22;;;;;;;9.80;5.80;;;;;;;;;;108890;1296;23437;-28
2022/08/13 11:26:47;;;;;;;6.90;6.30;;;;;;;;;;108869;1303;22527;-28
2022/08/13 11:29:16;;;;;;;7.70;5.70;;;;;;;;;;108712;1296;23245;-28
2022/08/13 11:31:41;;;;;;;7.70;5.90;;;;;;;;;;108860;1296;22545;-28
2022/08/13 11:34:07;;;;;;;8.00;6.90;;;;;;;;;;108877;1295;22654;-28
2022/08/13 11:36:32;;;;;;;9.50;6.00;;;;;;;;;;108842;1296;22559;-24
2022/08/13 11:38:58;;;;;;;11.40;8.70;;;;;;;;;;108719;1298;23613;-24
2022/08/13 11:41:24;;;;;;;15.30;9.80;;;;;;;;;;108856;1303;22451;-28
2022/08/13 11:43:51;;;;;;;9.60;8.80;;;;;;;;;;108868;1296;23013;-28
2022/08/13 11:46:17;;;;;;;10.90;8.40;;;;;;;;;;108871;1296;22446;-24
2022/08/13 11:48:43;;;;;;;9.00;7.30;;;;;;;;;;108855;1296;22833;-26
2022/08/13 11:51:08;;;;;;;15.40;10.60;;;;;;;;;;108847;1296;23341;-24
2022/08/13 11:53:34;;;;;;;12.20;10.50;;;;;;;;;;108899;1296;22540;-25
2022/08/13 11:55:59;;;;;;;12.30;9.30;;;;;;;;;;108833;1303;23187;-28
2022/08/13 11:58:25;;;;;;;14.20;10.60;;;;;;;;;;108852;1296;22395;-28
2022/08/13 12:00:53;;;;;;;10.40;9.30;;;;;;;;;;108830;1303;23369;-24
2022/08/13 12:03:18;;;;;;;11.30;10.40;;;;;;;;;;108618;1303;23085;-28
2022/08/13 12:05:44;;;;;;;9.40;8.50;;;;;;;;;;108898;1296;23359;-28
2022/08/13 12:08:12;;;;;;;13.30;10.30;;;;;;;;;;108894;1296;22536;-24
2022/08/13 12:10:37;;;;;;;11.90;10.50;;;;;;;;;;108838;1296;22862;-28
2022/08/13 12:13:03;;;;;;;10.50;9.60;;;;;;;;;;108897;1296;22759;-24
2022/08/13 12:15:29;;;;;;;19.40;10.60;;;;;;;;;;108871;1303;23383;-24
2022/08/13 12:17:54;;;;;;;12.10;10.90;;;;;;;;;;108893;1296;22567;-24
2022/08/13 12:20:20;;;;;;;13.90;9.20;;;;;;;;;;108832;1303;23316;-24
2022/08/13 12:22:47;;;;;;;11.70;10.70;;;;;;;;;;108816;1296;22526;-24
2022/08/13 12:25:13;;;;;;;15.30;12.30;;;;;;;;;;108888;1296;22559;-24
2022/08/13 12:27:39;;;;;;;13.20;11.70;;;;;;;;;;108823;1296;22673;-28
2022/08/13 12:30:05;;;;;;;13.30;12.00;;;;;;;;;;108864;1303;23311;-28
2022/08/13 12:32:30;;;;;;;13.80;12.10;;;;;;;;;;108765;1296;22900;-24
2022/08/13 12:34:56;;;;;;;15.70;12.70;;;;;;;;;;108855;1296;23596;-28
2022/08/13 12:37:23;;;;;;;19.20;13.00;;;;;;;;;;108889;1295;22552;-28
2022/08/13 12:39:50;;;;;;;13.90;12.70;;;;;;;;;;108845;1296;23223;-24
2022/08/13 12:42:15;;;;;;;13.60;12.30;;;;;;;;;;108851;1303;22532;-24
2022/08/13 12:44:41;;;;;;;16.10;11.10;;;;;;;;;;108837;1296;22437;-24
2022/08/13 12:47:06;;;;;;;15.10;12.60;;;;;;;;;;108817;1283;23621;-24
2022/08/13 12:49:32;;;;;;;13.40;11.80;;;;;;;;;;108888;1296;22388;-24
2022/08/13 12:51:58;;;;;;;12.40;11.10;;;;;;;;;;108733;1297;23149;-24
2022/08/13 12:54:24;;;;;;;15.70;12.40;;;;;;;;;;108615;1297;22533;-24
2022/08/13 12:56:50;;;;;;;13.80;11.70;;;;;;;;;;108361;1300;23204;-28
2022/08/13 12:59:16;;;;;;;15.50;11.80;;;;;;;;;;108865;1296;23332;-24
2022/08/13 13:01:41;;;;;;;11.10;10.10;;;;;;;;;;108802;1296;23167;-24
2022/08/13 13:04:07;;;;;;;11.80;10.70;;;;;;;;;;108384;1296;22556;-28
2022/08/13 13:06:32;;;;;;;11.80;10.70;;;;;;;;;;108739;1296;23766;-28
2022/08/13 13:08:58;;;;;;;11.70;8.50;;;;;;;;;;108871;1296;22548;-24
2022/08/13 13:11:23;;;;;;;8.10;7.20;;;;;;;;;;108892;1296;22532;-28
2022/08/13 13:13:49;;;;;;;9.10;8.40;;;;;;;;;;108804;1296;22645;-28
2022/08/13 13:16:15;;;;;;;10.40;8.70;;;;;;;;;;108874;1296;23234;-24
2022/08/13 13:18:40;;;;;;;8.20;7.40;;;;;;;;;;108851;1282;23262;-28
2022/08/13 13:21:06;;;;;;;10.60;9.50;;;;;;;;;;108671;1303;22515;-28
2022/08/13 13:23:31;;;;;;;15.30;11.90;;;;;;;;;;108846;1296;22537;-24
2022/08/13 13:25:57;;;;;;;16.80;10.70;;;;;;;;;;108593;1304;22581;-28
2022/08/13 13:28:24;;;;;;;16.80;10.50;;;;;;;;;;108760;1296;24042;-24
2022/08/13 13:30:50;;;;;;;11.50;8.80;;;;;;;;;;108844;1289;22542;-28
2022/08/13 13:33:16;;;;;;;18.20;10.60;;;;;;;;;;108849;1296;22532;-24
2022/08/13 13:35:42;;;;;;;14.60;13.10;;;;;;;;;;108794;1303;22562;-24
2022/08/13 13:38:08;;;;;;;11.90;10.80;;;;;;;;;;108862;1296;22533;-28
2022/08/13 13:40:34;;;;;;;11.50;10.20;;;;;;;;;;108823;1303;22414;-24
2022/08/13 13:43:00;;;;;;;13.30;11.90;;;;;;;;;;108867;1296;22793;-28
2022/08/13 13:45:27;;;;;;;12.50;10.50;;;;;;;;;;108904;1296;22874;-24
2022/08/13 13:47:53;;;;;;;10.60;8.80;;;;;;;;;;108875;1296;22458;-28
2022/08/13 13:50:19;;;;;;;14.60;10.50;;;;;;;;;;108893;1296;23334;-28
2022/08/13 13:52:45;;;;;;;10.50;9.60;;;;;;;;;;107941;1296;723757;-24
2022/08/13 13:55:10;;;;;;;11.10;9.80;;;;;;;;;;108826;1303;23199;-28
2022/08/13 13:57:38;;;;;;;7.90;7.10;;;;;;;;;;108871;1296;22533;-24
2022/08/13 14:00:04;;;;;;;13.50;11.70;;;;;;;;;;108827;1303;23231;-28
2022/08/13 14:02:29;;;;;;;13.50;10.50;;;;;;;;;;108759;1297;23268;-26
2022/08/13 14:04:55;;;;;;;10.60;9.60;;;;;;;;;;108821;1296;22584;-28
2022/08/13 14:07:21;;;;;;;8.80;7.00;;;;;;;;;;108872;1296;23050;-24
2022/08/13 14:09:46;;;;;;;9.90;8.10;;;;;;;;;;108853;1296;22626;-28
2022/08/13 14:12:12;;;;;;;9.50;8.30;;;;;;;;;;108880;1295;22525;-28
2022/08/13 14:14:37;;;;;;;9.60;7.50;;;;;;;;;;108859;1295;22550;-24
2022/08/13 14:17:03;;;;;;;9.20;8.40;;;;;;;;;;108866;1303;23163;-28
2022/08/13 14:19:29;;;;;;;7.70;6.80;;;;;;;;;;108883;1295;22544;-24
2022/08/13 14:21:55;;;;;;;8.60;7.80;;;;;;;;;;108859;1295;22582;-24
2022/08/13 14:24:21;;;;;;;8.90;6.80;;;;;;;;;;108894;1295;23184;-28
2022/08/13 14:26:47;;;;;;;8.70;6.40;;;;;;;;;;108888;1296;23119;-24
2022/08/13 14:29:13;;;;;;;6.10;5.60;;;;;;;;;;108797;1303;22539;-28
2022/08/13 14:31:39;;;;;;;7.60;6.80;;;;;;;;;;108879;1296;22743;-24